sensor_id;sensor_type;location;lat;lon;timestamp;pressure;altitude;pressure_sealevel;temperature;humidity
49723;BME280;43484;43.608;1.458;2023-07-31T00:01:19;100166.78;;;20.48;100.00
49723;BME280;43484;43.608;1.458;2023-07-31T00:03:46;100172.88;;;20.45;100.00
49723;BME280;43484;43.608;1.458;2023-07-31T00:06:13;100171.97;;;20.46;100.00
49723;BME280;43484;43.608;1.458;2023-07-31T00:08:40;100173.69;;;20.58;100.00
49723;BME280;43484;43.608;1.458;2023-07-31T00:11:06;100166.81;;;20.40;100.00
49723;BME280;43484;43.608;1.458;2023-07-31T00:13:33;100171.13;;;20.46;100.00
49723;BME280;43484;43.608;1.458;2023-07-31T00:16:01;100167.66;;;20.44;100.00
49723;BME280;43484;43.608;1.458;2023-07-31T00:18:28;100167.66;;;20.44;100.00
49723;BME280;43484;43.608;1.458;2023-07-31T00:20:55;100171.06;;;20.55;100.00
49723;BME280;43484;43.608;1.458;2023-07-31T00:23:21;100173.66;;;20.59;100.00
49723;BME280;43484;43.608;1.458;2023-07-31T00:25:49;100165.88;;;20.59;100.00
49723;BME280;43484;43.608;1.458;2023-07-31T00:28:15;100182.38;;;20.54;100.00
49723;BME280;43484;43.608;1.458;2023-07-31T00:30:42;100173.63;;;20.65;100.00
49723;BME280;43484;43.608;1.458;2023-07-31T00:33:08;100177.19;;;20.52;100.00
49723;BME280;43484;43.608;1.458;2023-07-31T00:35:35;100175.41;;;20.57;100.00
49723;BME280;43484;43.608;1.458;2023-07-31T00:38:02;100171.09;;;20.56;100.00
49723;BME280;43484;43.608;1.458;2023-07-31T00:40:28;100173.66;;;20.55;100.00
49723;BME280;43484;43.608;1.458;2023-07-31T00:42:55;100169.41;;;20.48;100.00
49723;BME280;43484;43.608;1.458;2023-07-31T00:45:22;100172.88;;;20.44;100.00
49723;BME280;43484;43.608;1.458;2023-07-31T00:47:50;100168.63;;;20.23;100.00
49723;BME280;43484;43.608;1.458;2023-07-31T00:50:16;100173.88;;;20.17;100.00
49723;BME280;43484;43.608;1.458;2023-07-31T00:52:43;100165.16;;;20.26;100.00
49723;BME280;43484;43.608;1.458;2023-07-31T00:55:10;100161.66;;;20.28;100.00
49723;BME280;43484;43.608;1.458;2023-07-31T00:57:38;100155.63;;;20.23;100.00
49723;BME280;43484;43.608;1.458;2023-07-31T01:00:08;100156.50;;;20.16;100.00
49723;BME280;43484;43.608;1.458;2023-07-31T01:02:35;100160.84;;;20.08;100.00
49723;BME280;43484;43.608;1.458;2023-07-31T01:05:03;100160.84;;;20.10;100.00
49723;BME280;43484;43.608;1.458;2023-07-31T01:10:46;100167.78;;;20.12;100.00
49723;BME280;43484;43.608;1.458;2023-07-31T01:13:15;100166.91;;;20.24;100.00
49723;BME280;43484;43.608;1.458;2023-07-31T01:15:43;100171.25;;;20.20;100.00
49723;BME280;43484;43.608;1.458;2023-07-31T01:18:10;100164.31;;;20.21;100.00
49723;BME280;43484;43.608;1.458;2023-07-31T01:20:37;100166.03;;;20.28;100.00
49723;BME280;43484;43.608;1.458;2023-07-31T01:26:24;100166.94;;;20.01;100.00
49723;BME280;43484;43.608;1.458;2023-07-31T01:29:09;100169.53;;;20.01;100.00
49723;BME280;43484;43.608;1.458;2023-07-31T01:31:37;100159.13;;;20.07;100.00
49723;BME280;43484;43.608;1.458;2023-07-31T01:34:08;100160.06;;;19.94;100.00
49723;BME280;43484;43.608;1.458;2023-07-31T01:36:36;100149.63;;;19.98;100.00
49723;BME280;43484;43.608;1.458;2023-07-31T01:39:04;100153.09;;;19.93;100.00
49723;BME280;43484;43.608;1.458;2023-07-31T01:41:30;100149.59;;;20.03;100.00
49723;BME280;43484;43.608;1.458;2023-07-31T01:43:57;100149.66;;;19.92;100.00
49723;BME280;43484;43.608;1.458;2023-07-31T01:46:23;100147.06;;;19.85;100.00
49723;BME280;43484;43.608;1.458;2023-07-31T01:48:50;100141.88;;;19.74;100.00
49723;BME280;43484;43.608;1.458;2023-07-31T01:51:17;100139.28;;;19.82;100.00
49723;BME280;43484;43.608;1.458;2023-07-31T01:53:43;100142.75;;;19.75;100.00
49723;BME280;43484;43.608;1.458;2023-07-31T01:56:10;100139.31;;;19.70;100.00
49723;BME280;43484;43.608;1.458;2023-07-31T01:58:37;100133.25;;;19.72;100.00
49723;BME280;43484;43.608;1.458;2023-07-31T02:01:04;100126.28;;;19.74;100.00
49723;BME280;43484;43.608;1.458;2023-07-31T02:03:31;100122.88;;;19.60;100.00
49723;BME280;43484;43.608;1.458;2023-07-31T02:05:57;100119.41;;;19.61;100.00
49723;BME280;43484;43.608;1.458;2023-07-31T02:08:24;100115.13;;;19.42;100.00
49723;BME280;43484;43.608;1.458;2023-07-31T02:10:51;100110.78;;;19.41;100.00
49723;BME280;43484;43.608;1.458;2023-07-31T02:13:18;100107.31;;;19.35;100.00
49723;BME280;43484;43.608;1.458;2023-07-31T02:15:45;100103.84;;;19.46;100.00
49723;BME280;43484;43.608;1.458;2023-07-31T02:18:12;100099.50;;;19.50;100.00
49723;BME280;43484;43.608;1.458;2023-07-31T02:20:39;100096.09;;;19.37;100.00
49723;BME280;43484;43.608;1.458;2023-07-31T02:23:05;100110.75;;;19.26;100.00
49723;BME280;43484;43.608;1.458;2023-07-31T02:25:32;100099.50;;;19.23;100.00
49723;BME280;43484;43.608;1.458;2023-07-31T02:27:59;100096.06;;;19.25;100.00
49723;BME280;43484;43.608;1.458;2023-07-31T02:30:25;100091.72;;;19.23;100.00
49723;BME280;43484;43.608;1.458;2023-07-31T02:32:52;100091.72;;;19.08;100.00
49723;BME280;43484;43.608;1.458;2023-07-31T02:35:19;100085.69;;;19.12;100.00
49723;BME280;43484;43.608;1.458;2023-07-31T02:37:45;100093.47;;;19.13;100.00
49723;BME280;43484;43.608;1.458;2023-07-31T02:40:12;100086.53;;;19.06;100.00
49723;BME280;43484;43.608;1.458;2023-07-31T02:42:39;100078.75;;;18.91;100.00
49723;BME280;43484;43.608;1.458;2023-07-31T02:45:06;100076.19;;;18.97;100.00
49723;BME280;43484;43.608;1.458;2023-07-31T02:47:32;100081.34;;;18.94;100.00
49723;BME280;43484;43.608;1.458;2023-07-31T02:49:59;100084.81;;;18.96;100.00
49723;BME280;43484;43.608;1.458;2023-07-31T02:52:26;100084.81;;;19.01;100.00
49723;BME280;43484;43.608;1.458;2023-07-31T02:54:53;100083.09;;;19.09;100.00
49723;BME280;43484;43.608;1.458;2023-07-31T02:57:19;100081.34;;;19.17;100.00
49723;BME280;43484;43.608;1.458;2023-07-31T02:59:46;100082.19;;;19.25;100.00
49723;BME280;43484;43.608;1.458;2023-07-31T03:02:12;100081.38;;;18.99;100.00
49723;BME280;43484;43.608;1.458;2023-07-31T03:04:40;100079.63;;;18.83;100.00
49723;BME280;43484;43.608;1.458;2023-07-31T03:07:06;100076.16;;;18.90;100.00
49723;BME280;43484;43.608;1.458;2023-07-31T03:09:33;100067.50;;;18.88;100.00
49723;BME280;43484;43.608;1.458;2023-07-31T03:11:59;100066.66;;;18.90;100.00
49723;BME280;43484;43.608;1.458;2023-07-31T03:14:26;100069.25;;;18.90;100.00
49723;BME280;43484;43.608;1.458;2023-07-31T03:16:53;100071.81;;;19.01;100.00
49723;BME280;43484;43.608;1.458;2023-07-31T03:19:20;100080.50;;;18.94;100.00
49723;BME280;43484;43.608;1.458;2023-07-31T03:21:46;100074.41;;;19.01;100.00
49723;BME280;43484;43.608;1.458;2023-07-31T03:24:13;100075.31;;;18.92;100.00
49723;BME280;43484;43.608;1.458;2023-07-31T03:26:39;100078.78;;;18.87;100.00
49723;BME280;43484;43.608;1.458;2023-07-31T03:29:08;100074.44;;;18.86;100.00
49723;BME280;43484;43.608;1.458;2023-07-31T03:31:34;100077.03;;;18.80;100.00
49723;BME280;43484;43.608;1.458;2023-07-31T03:34:01;100073.59;;;18.85;100.00
49723;BME280;43484;43.608;1.458;2023-07-31T03:36:28;100070.97;;;18.58;100.00
49723;BME280;43484;43.608;1.458;2023-07-31T03:38:54;100072.69;;;18.53;100.00
49723;BME280;43484;43.608;1.458;2023-07-31T03:41:21;100057.13;;;18.59;100.00
49723;BME280;43484;43.608;1.458;2023-07-31T03:43:50;100066.63;;;18.49;100.00
49723;BME280;43484;43.608;1.458;2023-07-31T03:46:19;100064.03;;;18.51;100.00
49723;BME280;43484;43.608;1.458;2023-07-31T03:48:46;100064.91;;;18.56;100.00
49723;BME280;43484;43.608;1.458;2023-07-31T03:51:13;100059.72;;;18.51;100.00
49723;BME280;43484;43.608;1.458;2023-07-31T03:53:40;100065.78;;;18.61;100.00
49723;BME280;43484;43.608;1.458;2023-07-31T03:56:06;100070.06;;;18.45;100.00
49723;BME280;43484;43.608;1.458;2023-07-31T03:58:33;100070.00;;;18.30;100.00
49723;BME280;43484;43.608;1.458;2023-07-31T04:01:01;100063.13;;;18.37;100.00
49723;BME280;43484;43.608;1.458;2023-07-31T04:03:28;100070.03;;;18.35;100.00
49723;BME280;43484;43.608;1.458;2023-07-31T04:05:55;100077.84;;;18.42;100.00
49723;BME280;43484;43.608;1.458;2023-07-31T04:08:24;100070.06;;;18.44;100.00
49723;BME280;43484;43.608;1.458;2023-07-31T04:10:51;100076.06;;;18.34;100.00
49723;BME280;43484;43.608;1.458;2023-07-31T04:13:17;100068.28;;;18.26;100.00
49723;BME280;43484;43.608;1.458;2023-07-31T04:15:50;100065.66;;;18.16;100.00
49723;BME280;43484;43.608;1.458;2023-07-31T04:18:17;100058.75;;;18.25;100.00
49723;BME280;43484;43.608;1.458;2023-07-31T04:20:44;100055.25;;;18.04;100.00
49723;BME280;43484;43.608;1.458;2023-07-31T04:23:11;100055.25;;;17.98;100.00
49723;BME280;43484;43.608;1.458;2023-07-31T04:25:37;100050.91;;;17.88;100.00
49723;BME280;43484;43.608;1.458;2023-07-31T04:28:04;100047.47;;;18.05;100.00
49723;BME280;43484;43.608;1.458;2023-07-31T04:30:31;100049.19;;;17.93;100.00
49723;BME280;43484;43.608;1.458;2023-07-31T04:32:58;100046.59;;;17.91;100.00
49723;BME280;43484;43.608;1.458;2023-07-31T04:35:25;100055.28;;;18.08;100.00
49723;BME280;43484;43.608;1.458;2023-07-31T04:37:51;100051.78;;;17.90;100.00
49723;BME280;43484;43.608;1.458;2023-07-31T04:40:18;100053.53;;;18.01;100.00
49723;BME280;43484;43.608;1.458;2023-07-31T04:42:45;100062.97;;;17.80;100.00
49723;BME280;43484;43.608;1.458;2023-07-31T04:45:12;100058.69;;;17.91;100.00
49723;BME280;43484;43.608;1.458;2023-07-31T04:47:39;100059.44;;;17.66;100.00
49723;BME280;43484;43.608;1.458;2023-07-31T04:50:06;100052.50;;;17.57;100.00
49723;BME280;43484;43.608;1.458;2023-07-31T04:52:33;100035.22;;;17.59;100.00
49723;BME280;43484;43.608;1.458;2023-07-31T04:54:59;100043.88;;;17.64;100.00
49723;BME280;43484;43.608;1.458;2023-07-31T04:57:26;100041.28;;;17.58;100.00
49723;BME280;43484;43.608;1.458;2023-07-31T04:59:53;100043.00;;;17.59;100.00
49723;BME280;43484;43.608;1.458;2023-07-31T05:02:19;100052.47;;;17.54;100.00
49723;BME280;43484;43.608;1.458;2023-07-31T05:04:46;100040.41;;;17.56;100.00
49723;BME280;43484;43.608;1.458;2023-07-31T05:07:13;100040.31;;;17.44;100.00
49723;BME280;43484;43.608;1.458;2023-07-31T05:09:39;100042.91;;;17.42;100.00
49723;BME280;43484;43.608;1.458;2023-07-31T05:12:06;100039.34;;;17.27;100.00
49723;BME280;43484;43.608;1.458;2023-07-31T05:14:33;100039.41;;;17.33;100.00
49723;BME280;43484;43.608;1.458;2023-07-31T05:16:59;100043.69;;;17.31;100.00
49723;BME280;43484;43.608;1.458;2023-07-31T05:19:26;100042.84;;;17.33;100.00
49723;BME280;43484;43.608;1.458;2023-07-31T05:21:52;100044.59;;;17.34;100.00
49723;BME280;43484;43.608;1.458;2023-07-31T05:24:19;100043.84;;;17.55;100.00
49723;BME280;43484;43.608;1.458;2023-07-31T05:26:46;100052.47;;;17.52;100.00
49723;BME280;43484;43.608;1.458;2023-07-31T05:29:12;100060.13;;;17.40;100.00
49723;BME280;43484;43.608;1.458;2023-07-31T05:31:39;100056.78;;;17.57;100.00
49723;BME280;43484;43.608;1.458;2023-07-31T05:34:05;100062.91;;;17.68;100.00
49723;BME280;43484;43.608;1.458;2023-07-31T05:36:32;100069.00;;;17.76;100.00
49723;BME280;43484;43.608;1.458;2023-07-31T05:38:59;100083.59;;;17.59;100.00
49723;BME280;43484;43.608;1.458;2023-07-31T05:41:25;100079.28;;;17.59;100.00
49723;BME280;43484;43.608;1.458;2023-07-31T05:43:52;100078.41;;;17.60;100.00
49723;BME280;43484;43.608;1.458;2023-07-31T05:46:19;100077.56;;;17.64;100.00
49723;BME280;43484;43.608;1.458;2023-07-31T05:48:45;100085.41;;;17.76;100.00
49723;BME280;43484;43.608;1.458;2023-07-31T05:51:12;100094.00;;;17.69;100.00
49723;BME280;43484;43.608;1.458;2023-07-31T05:53:39;100095.69;;;17.61;100.00
49723;BME280;43484;43.608;1.458;2023-07-31T05:56:07;100099.19;;;17.72;100.00
49723;BME280;43484;43.608;1.458;2023-07-31T05:58:34;100096.69;;;17.92;100.00
49723;BME280;43484;43.608;1.458;2023-07-31T06:01:00;100115.75;;;18.06;100.00
49723;BME280;43484;43.608;1.458;2023-07-31T06:03:27;100130.47;;;18.10;100.00
49723;BME280;43484;43.608;1.458;2023-07-31T06:05:54;100136.50;;;18.06;100.00
49723;BME280;43484;43.608;1.458;2023-07-31T06:08:21;100142.44;;;17.79;100.00
49723;BME280;43484;43.608;1.458;2023-07-31T06:10:48;100132.88;;;17.71;100.00
49723;BME280;43484;43.608;1.458;2023-07-31T06:13:14;100130.38;;;17.84;100.00
49723;BME280;43484;43.608;1.458;2023-07-31T06:15:41;100125.19;;;17.89;100.00
49723;BME280;43484;43.608;1.458;2023-07-31T06:18:08;100131.25;;;17.88;100.00
49723;BME280;43484;43.608;1.458;2023-07-31T06:20:34;100129.59;;;18.06;100.00
49723;BME280;43484;43.608;1.458;2023-07-31T06:23:01;100146.06;;;18.14;100.00
49723;BME280;43484;43.608;1.458;2023-07-31T06:25:28;100134.84;;;18.20;100.00
49723;BME280;43484;43.608;1.458;2023-07-31T06:27:55;100142.63;;;18.20;100.00
49723;BME280;43484;43.608;1.458;2023-07-31T06:30:22;100146.09;;;18.28;100.00
49723;BME280;43484;43.608;1.458;2023-07-31T06:32:48;100152.19;;;18.39;100.00
49723;BME280;43484;43.608;1.458;2023-07-31T06:35:15;100158.13;;;18.09;100.00
49723;BME280;43484;43.608;1.458;2023-07-31T06:37:42;100153.06;;;18.33;100.00
49723;BME280;43484;43.608;1.458;2023-07-31T06:40:10;100158.13;;;18.11;100.00
49723;BME280;43484;43.608;1.458;2023-07-31T06:42:37;100152.13;;;18.22;100.00
49723;BME280;43484;43.608;1.458;2023-07-31T06:45:04;100152.16;;;18.27;100.00
49723;BME280;43484;43.608;1.458;2023-07-31T06:47:31;100153.00;;;18.21;100.00
49723;BME280;43484;43.608;1.458;2023-07-31T06:49:58;100153.09;;;18.39;100.00
49723;BME280;43484;43.608;1.458;2023-07-31T06:52:25;100160.91;;;18.54;100.00
49723;BME280;43484;43.608;1.458;2023-07-31T06:55:16;100165.25;;;18.60;100.00
49723;BME280;43484;43.608;1.458;2023-07-31T06:57:47;100158.34;;;18.65;100.00
49723;BME280;43484;43.608;1.458;2023-07-31T07:00:14;100169.56;;;18.56;100.00
49723;BME280;43484;43.608;1.458;2023-07-31T07:02:41;100166.06;;;18.44;100.00
49723;BME280;43484;43.608;1.458;2023-07-31T07:05:08;100160.94;;;18.72;100.00
49723;BME280;43484;43.608;1.458;2023-07-31T07:07:35;100168.75;;;18.89;100.00
49723;BME280;43484;43.608;1.458;2023-07-31T07:10:03;100167.00;;;18.74;100.00
49723;BME280;43484;43.608;1.458;2023-07-31T07:12:32;100167.00;;;18.70;100.00
49723;BME280;43484;43.608;1.458;2023-07-31T07:15:00;100168.75;;;18.86;100.00
49723;BME280;43484;43.608;1.458;2023-07-31T07:17:28;100174.84;;;19.05;100.00
49723;BME280;43484;43.608;1.458;2023-07-31T07:19:58;100175.69;;;18.99;100.00
49723;BME280;43484;43.608;1.458;2023-07-31T07:22:25;100177.44;;;19.03;100.00
49723;BME280;43484;43.608;1.458;2023-07-31T07:24:54;100175.72;;;19.10;100.00
49723;BME280;43484;43.608;1.458;2023-07-31T07:27:21;100171.38;;;19.16;100.00
49723;BME280;43484;43.608;1.458;2023-07-31T07:29:50;100175.72;;;19.20;100.00
49723;BME280;43484;43.608;1.458;2023-07-31T07:32:18;100176.59;;;19.33;100.00
49723;BME280;43484;43.608;1.458;2023-07-31T07:34:47;100168.81;;;19.30;100.00
49723;BME280;43484;43.608;1.458;2023-07-31T07:37:14;100164.47;;;19.36;100.00
49723;BME280;43484;43.608;1.458;2023-07-31T07:39:41;100163.63;;;19.54;100.00
49723;BME280;43484;43.608;1.458;2023-07-31T07:42:07;100167.06;;;19.62;100.00
49723;BME280;43484;43.608;1.458;2023-07-31T07:44:34;100165.28;;;19.71;100.00
49723;BME280;43484;43.608;1.458;2023-07-31T07:47:01;100166.16;;;19.84;100.00
49723;BME280;43484;43.608;1.458;2023-07-31T07:49:28;100169.66;;;19.72;100.00
49723;BME280;43484;43.608;1.458;2023-07-31T07:51:54;100174.81;;;19.69;100.00
49723;BME280;43484;43.608;1.458;2023-07-31T07:54:21;100176.59;;;19.58;100.00
49723;BME280;43484;43.608;1.458;2023-07-31T07:56:47;100167.94;;;19.52;100.00
49723;BME280;43484;43.608;1.458;2023-07-31T07:59:14;100170.53;;;19.55;100.00
49723;BME280;43484;43.608;1.458;2023-07-31T08:01:41;100160.97;;;19.69;100.00
49723;BME280;43484;43.608;1.458;2023-07-31T08:04:07;100168.75;;;19.85;100.00
49723;BME280;43484;43.608;1.458;2023-07-31T08:06:34;100160.00;;;20.08;100.00
49723;BME280;43484;43.608;1.458;2023-07-31T08:09:01;100160.09;;;19.82;100.00
49723;BME280;43484;43.608;1.458;2023-07-31T08:11:32;100153.97;;;19.92;100.00
49723;BME280;43484;43.608;1.458;2023-07-31T08:13:59;100157.41;;;20.09;100.00
49723;BME280;43484;43.608;1.458;2023-07-31T08:16:25;100149.56;;;20.20;100.00
49723;BME280;43484;43.608;1.458;2023-07-31T08:18:52;100147.78;;;20.34;100.00
49723;BME280;43484;43.608;1.458;2023-07-31T08:21:19;100150.44;;;20.20;100.00
49723;BME280;43484;43.608;1.458;2023-07-31T08:23:46;100134.78;;;20.25;100.00
49723;BME280;43484;43.608;1.458;2023-07-31T08:26:16;100137.38;;;20.26;100.00
49723;BME280;43484;43.608;1.458;2023-07-31T08:28:43;100135.69;;;20.24;100.00
49723;BME280;43484;43.608;1.458;2023-07-31T08:31:10;100146.88;;;20.41;100.00
49723;BME280;43484;43.608;1.458;2023-07-31T08:33:38;100126.91;;;20.38;100.00
49723;BME280;43484;43.608;1.458;2023-07-31T08:36:05;100127.72;;;20.46;100.00
49723;BME280;43484;43.608;1.458;2023-07-31T08:38:32;100121.63;;;20.58;100.00
49723;BME280;43484;43.608;1.458;2023-07-31T08:40:59;100126.72;;;20.74;100.00
49723;BME280;43484;43.608;1.458;2023-07-31T08:43:26;100115.38;;;20.78;100.00
49723;BME280;43484;43.608;1.458;2023-07-31T08:45:53;100119.66;;;20.88;100.00
49723;BME280;43484;43.608;1.458;2023-07-31T08:48:23;100125.66;;;20.95;100.00
49723;BME280;43484;43.608;1.458;2023-07-31T08:50:51;100118.66;;;21.07;100.00
49723;BME280;43484;43.608;1.458;2023-07-31T08:53:19;100109.97;;;21.07;100.00
49723;BME280;43484;43.608;1.458;2023-07-31T08:55:47;100114.25;;;21.15;100.00
49723;BME280;43484;43.608;1.458;2023-07-31T08:58:15;100108.84;;;21.38;100.00
49723;BME280;43484;43.608;1.458;2023-07-31T09:00:42;100108.78;;;21.43;100.00
49723;BME280;43484;43.608;1.458;2023-07-31T09:03:17;100103.66;;;21.32;100.00
49723;BME280;43484;43.608;1.458;2023-07-31T09:05:46;100099.94;;;21.56;100.00
49723;BME280;43484;43.608;1.458;2023-07-31T09:08:16;100095.69;;;21.47;100.00
49723;BME280;43484;43.608;1.458;2023-07-31T09:10:45;100102.59;;;21.53;100.00
49723;BME280;43484;43.608;1.458;2023-07-31T09:13:17;100088.50;;;21.67;100.00
49723;BME280;43484;43.608;1.458;2023-07-31T09:15:45;100098.28;;;21.52;100.00
49723;BME280;43484;43.608;1.458;2023-07-31T09:18:12;100092.69;;;21.86;100.00
49723;BME280;43484;43.608;1.458;2023-07-31T09:20:38;100098.66;;;21.96;100.00
49723;BME280;43484;43.608;1.458;2023-07-31T09:23:14;100094.34;;;21.90;100.00
49723;BME280;43484;43.608;1.458;2023-07-31T09:25:43;100089.94;;;21.97;100.00
49723;BME280;43484;43.608;1.458;2023-07-31T09:28:11;100088.16;;;22.02;100.00
49723;BME280;43484;43.608;1.458;2023-07-31T09:30:50;100090.78;;;21.97;100.00
49723;BME280;43484;43.608;1.458;2023-07-31T09:33:20;100088.22;;;21.94;100.00
49723;BME280;43484;43.608;1.458;2023-07-31T09:35:47;100076.75;;;22.07;100.00
49723;BME280;43484;43.608;1.458;2023-07-31T09:38:15;100081.66;;;22.30;100.00
49723;BME280;43484;43.608;1.458;2023-07-31T09:40:46;100074.84;;;22.20;100.00
49723;BME280;43484;43.608;1.458;2023-07-31T09:43:18;100071.59;;;22.03;100.00
49723;BME280;43484;43.608;1.458;2023-07-31T09:45:45;100069.66;;;22.18;100.00
49723;BME280;43484;43.608;1.458;2023-07-31T09:48:14;100067.72;;;22.31;100.00
49723;BME280;43484;43.608;1.458;2023-07-31T09:50:46;100071.28;;;22.27;100.00
49723;BME280;43484;43.608;1.458;2023-07-31T09:53:14;100070.34;;;22.31;100.00
49723;BME280;43484;43.608;1.458;2023-07-31T09:55:41;100061.69;;;22.27;100.00
49723;BME280;43484;43.608;1.458;2023-07-31T09:58:10;100063.28;;;22.36;100.00
49723;BME280;43484;43.608;1.458;2023-07-31T10:00:38;100061.69;;;22.26;100.00
49723;BME280;43484;43.608;1.458;2023-07-31T10:03:09;100060.75;;;22.33;100.00
49723;BME280;43484;43.608;1.458;2023-07-31T10:05:43;100058.34;;;22.18;100.00
49723;BME280;43484;43.608;1.458;2023-07-31T10:08:13;100062.19;;;22.55;100.00
49723;BME280;43484;43.608;1.458;2023-07-31T10:10:44;100054.28;;;22.60;100.00
49723;BME280;43484;43.608;1.458;2023-07-31T10:13:12;100052.53;;;22.60;100.00
49723;BME280;43484;43.608;1.458;2023-07-31T10:15:40;100062.72;;;22.77;100.00
49723;BME280;43484;43.608;1.458;2023-07-31T10:18:10;100053.16;;;22.74;100.00
49723;BME280;43484;43.608;1.458;2023-07-31T10:20:37;100049.50;;;22.84;100.00
49723;BME280;43484;43.608;1.458;2023-07-31T10:23:06;100050.41;;;22.83;100.00
49723;BME280;43484;43.608;1.458;2023-07-31T10:25:32;100050.25;;;22.91;100.00
49723;BME280;43484;43.608;1.458;2023-07-31T10:28:00;100037.25;;;22.88;100.00
49723;BME280;43484;43.608;1.458;2023-07-31T10:30:29;100048.88;;;23.20;100.00
49723;BME280;43484;43.608;1.458;2023-07-31T10:32:57;100051.66;;;23.11;100.00
49723;BME280;43484;43.608;1.458;2023-07-31T10:35:24;100050.38;;;22.85;100.00
49723;BME280;43484;43.608;1.458;2023-07-31T10:37:52;100048.09;;;22.65;100.00
49723;BME280;43484;43.608;1.458;2023-07-31T10:40:24;100032.16;;;22.80;100.00
49723;BME280;43484;43.608;1.458;2023-07-31T10:42:53;100043.16;;;22.99;100.00
49723;BME280;43484;43.608;1.458;2023-07-31T10:45:37;100037.56;;;23.20;100.00
49723;BME280;43484;43.608;1.458;2023-07-31T10:48:13;100046.50;;;23.07;100.00
49723;BME280;43484;43.608;1.458;2023-07-31T10:50:56;100027.59;;;22.93;100.00
49723;BME280;43484;43.608;1.458;2023-07-31T10:53:29;100030.84;;;23.05;100.00
49723;BME280;43484;43.608;1.458;2023-07-31T10:55:59;100027.00;;;23.27;100.00
49723;BME280;43484;43.608;1.458;2023-07-31T10:58:26;100024.13;;;23.39;100.00
49723;BME280;43484;43.608;1.458;2023-07-31T11:00:57;100020.84;;;23.30;100.00
49723;BME280;43484;43.608;1.458;2023-07-31T11:03:26;100026.75;;;23.41;100.00
49723;BME280;43484;43.608;1.458;2023-07-31T11:06:02;100016.16;;;23.47;100.00
49723;BME280;43484;43.608;1.458;2023-07-31T11:08:32;100014.13;;;23.61;100.00
49723;BME280;43484;43.608;1.458;2023-07-31T11:13:48;100009.81;;;23.58;100.00
49723;BME280;43484;43.608;1.458;2023-07-31T11:16:24;100008.53;;;23.78;100.00
49723;BME280;43484;43.608;1.458;2023-07-31T11:18:52;100005.44;;;23.59;100.00
49723;BME280;43484;43.608;1.458;2023-07-31T11:21:22;100009.56;;;23.71;100.00
49723;BME280;43484;43.608;1.458;2023-07-31T11:23:51;100010.44;;;23.70;100.00
49723;BME280;43484;43.608;1.458;2023-07-31T11:26:18;100017.78;;;23.94;100.00
49723;BME280;43484;43.608;1.458;2023-07-31T11:28:49;100000.72;;;23.75;100.00
49723;BME280;43484;43.608;1.458;2023-07-31T11:31:17;99990.25;;;23.76;100.00
49723;BME280;43484;43.608;1.458;2023-07-31T11:33:44;99984.78;;;23.87;100.00
49723;BME280;43484;43.608;1.458;2023-07-31T11:36:15;99988.53;;;24.15;100.00
49723;BME280;43484;43.608;1.458;2023-07-31T11:38:43;99980.47;;;24.24;100.00
49723;BME280;43484;43.608;1.458;2023-07-31T11:41:10;100002.03;;;23.95;100.00
49723;BME280;43484;43.608;1.458;2023-07-31T11:43:36;99980.22;;;23.95;100.00
49723;BME280;43484;43.608;1.458;2023-07-31T11:46:03;99974.00;;;24.02;100.00
49723;BME280;43484;43.608;1.458;2023-07-31T11:48:31;99973.91;;;24.05;100.00
49723;BME280;43484;43.608;1.458;2023-07-31T11:51:06;99968.69;;;24.05;100.00
49723;BME280;43484;43.608;1.458;2023-07-31T11:53:38;99975.22;;;24.24;100.00
49723;BME280;43484;43.608;1.458;2023-07-31T11:56:09;99956.91;;;24.24;100.00
49723;BME280;43484;43.608;1.458;2023-07-31T11:58:38;99977.44;;;24.40;100.00
49723;BME280;43484;43.608;1.458;2023-07-31T12:01:05;99967.97;;;24.36;100.00
49723;BME280;43484;43.608;1.458;2023-07-31T12:03:33;99961.91;;;24.34;100.00
49723;BME280;43484;43.608;1.458;2023-07-31T12:06:01;99951.19;;;24.07;100.00
49723;BME280;43484;43.608;1.458;2023-07-31T12:08:27;99948.50;;;24.10;100.00
49723;BME280;43484;43.608;1.458;2023-07-31T12:10:54;99953.63;;;24.51;100.00
49723;BME280;43484;43.608;1.458;2023-07-31T12:13:28;99944.63;;;24.61;100.00
49723;BME280;43484;43.608;1.458;2023-07-31T12:15:58;99945.53;;;24.58;100.00
49723;BME280;43484;43.608;1.458;2023-07-31T12:18:26;99949.03;;;24.59;100.00
49723;BME280;43484;43.608;1.458;2023-07-31T12:21:00;99937.28;;;24.75;100.00
49723;BME280;43484;43.608;1.458;2023-07-31T12:23:29;99944.69;;;24.93;100.00
49723;BME280;43484;43.608;1.458;2023-07-31T12:28:41;99925.72;;;25.14;100.00
49723;BME280;43484;43.608;1.458;2023-07-31T12:31:12;99924.03;;;25.13;100.00
49723;BME280;43484;43.608;1.458;2023-07-31T12:33:40;99915.47;;;25.07;100.00
49723;BME280;43484;43.608;1.458;2023-07-31T12:36:12;99922.28;;;25.12;100.00
49723;BME280;43484;43.608;1.458;2023-07-31T12:38:40;99924.50;;;24.95;100.00
49723;BME280;43484;43.608;1.458;2023-07-31T12:41:07;99906.97;;;24.97;100.00
49723;BME280;43484;43.608;1.458;2023-07-31T12:43:39;99917.59;;;25.23;100.00
49723;BME280;43484;43.608;1.458;2023-07-31T12:46:06;99903.44;;;25.00;100.00
49723;BME280;43484;43.608;1.458;2023-07-31T12:48:37;99904.84;;;25.11;100.00
49723;BME280;43484;43.608;1.458;2023-07-31T12:51:05;99907.91;;;25.25;100.00
49723;BME280;43484;43.608;1.458;2023-07-31T12:53:33;99901.25;;;25.14;100.00
49723;BME280;43484;43.608;1.458;2023-07-31T12:55:59;99897.94;;;25.39;100.00